75LL weather

Hausmann Airport
Wyoming, Illinois, United States

Public forecast

Using degrees Fahrenheit for public forecast. Weather courtesy of forecast.io.

Closest aviation weather report (METAR) to Hausmann Airport

Closest report is Marshall County Airport, 17.2 nm (31.9 km) ESE. Retrieved 2020/07/07 18:35 UTC (16 minutes ago):

KC75 071835Z AUTO 22003KT 10SM SCT050 SCT100 32/20 A2996 RMK AO2 T03230200

Closest aviation forecast (TAF) to Hausmann Airport

Closest forecast is General Wayne A. Downing Peoria International Airport, 25.4 nm (47.0 km) S. Retrieved 2020/07/07 18:22 UTC (29 minutes ago):

TAF KPIA 071720Z 0718/0818 VRB03KT P6SM VCSH SCT050 FM080200 17004KT P6SM SCT050